createdAt,value
2022-10-01T00:00:59.578Z,68.04297
2022-10-01T00:02:59.713Z,67.77734
2022-10-01T00:06:10.445Z,67.66113
2022-10-01T00:08:10.489Z,69.53613
2022-10-01T00:10:10.495Z,69.86035
2022-10-01T00:12:10.465Z,69.50098
2022-10-01T00:14:10.492Z,68.49902
2022-10-01T00:16:10.514Z,68.56543
2022-10-01T00:18:10.451Z,68.4209
2022-10-01T00:21:17.263Z,68.69531
2022-10-01T00:23:17.281Z,68.95117
2022-10-01T00:25:17.292Z,69.53223
2022-10-01T00:27:17.242Z,69.3125
2022-10-01T00:29:17.265Z,68.95996
2022-10-01T00:31:17.378Z,68.75391
2022-10-01T00:33:17.250Z,68.71777
2022-10-01T00:36:29.295Z,68.69531
2022-10-01T00:38:29.351Z,68.90332
2022-10-01T00:40:29.329Z,68.8291
2022-10-01T00:42:29.321Z,68.93164
2022-10-01T00:44:29.267Z,68.64355
2022-10-01T00:46:29.332Z,70.32031
2022-10-01T00:48:29.248Z,70.55469
2022-10-01T00:51:27.769Z,70.77734
2022-10-01T00:53:27.821Z,70.14453
2022-10-01T00:55:27.801Z,69.86035
2022-10-01T00:57:27.814Z,70.06836
2022-10-01T00:59:27.744Z,69.70215
2022-10-01T01:01:28.009Z,69.62109
2022-10-01T01:03:27.751Z,70.12305
2022-10-01T01:06:52.098Z,69.81055
2022-10-01T01:08:52.087Z,70.34668
2022-10-01T01:10:52.072Z,69.9502
2022-10-01T01:12:52.106Z,69.77734
2022-10-01T01:14:52.073Z,69.52832
2022-10-01T01:16:52.117Z,68.95996
2022-10-01T01:18:52.059Z,69.7334
2022-10-01T01:21:53.319Z,70.5127
2022-10-01T01:23:53.260Z,70.6875
2022-10-01T01:25:53.259Z,71.56152
2022-10-01T01:27:53.383Z,71.36426
2022-10-01T01:29:53.299Z,71.80957
2022-10-01T01:31:53.251Z,71.51465
2022-10-01T01:33:53.267Z,71.44531
2022-10-01T01:37:18.741Z,70.69141
2022-10-01T01:39:18.726Z,70.99512
2022-10-01T01:41:18.663Z,70.79688
2022-10-01T01:43:18.726Z,70.49902
2022-10-01T01:45:18.752Z,70.77344
2022-10-01T01:47:18.702Z,70.26758
2022-10-01T01:49:18.669Z,71.44141
2022-10-01T01:52:02.445Z,71.24121
2022-10-01T01:54:02.435Z,71.93359
2022-10-01T01:56:02.372Z,71.45215
2022-10-01T01:58:02.441Z,71.06738
2022-10-01T02:00:02.379Z,71.13672
2022-10-01T02:02:02.662Z,70.62891
2022-10-01T02:04:02.391Z,70.43945
2022-10-01T02:07:40.174Z,70.37793
2022-10-01T02:09:40.210Z,71.11426
2022-10-01T02:11:40.156Z,70.81543
2022-10-01T02:13:40.158Z,70.37988
2022-10-01T02:15:40.270Z,71.2793
2022-10-01T02:17:40.571Z,71.21094
2022-10-01T02:19:40.199Z,71.47949
2022-10-01T02:22:08.307Z,72.41504
2022-10-01T02:24:08.349Z,72.44141
2022-10-01T02:26:08.336Z,73.57031
2022-10-01T02:28:08.423Z,73.00586
2022-10-01T02:30:08.324Z,72.38965
2022-10-01T02:32:08.304Z,71.88086
2022-10-01T02:34:13.357Z,71.64648
2022-10-01T02:36:08.317Z,71.21875
2022-10-01T02:37:58.842Z,71.38281
2022-10-01T02:39:58.855Z,71.10645
2022-10-01T02:41:58.855Z,71.89941
2022-10-01T02:43:58.903Z,72.03027
2022-10-01T02:45:59.036Z,73.56836
2022-10-01T02:47:58.855Z,73.08301
2022-10-01T02:49:58.888Z,73.38379
2022-10-01T02:52:41.124Z,72.69434
2022-10-01T02:54:41.069Z,71.8623
2022-10-01T02:56:49.534Z,71.70898
2022-10-01T02:58:41.062Z,71.2832
2022-10-01T03:00:41.081Z,71.22461
2022-10-01T03:02:41.253Z,70.8418
2022-10-01T03:04:41.067Z,70.96387
2022-10-01T03:08:25.973Z,71.83496
2022-10-01T03:10:25.890Z,72.16211
2022-10-01T03:12:25.901Z,72.19238
2022-10-01T03:14:25.906Z,71.93457
2022-10-01T03:16:26.061Z,71.69629
2022-10-01T03:18:25.890Z,72.37695
2022-10-01T03:20:25.883Z,72.125
2022-10-01T03:23:21.772Z,72.14063
2022-10-01T03:25:21.776Z,72.27344
2022-10-01T03:27:21.722Z,72.3291
2022-10-01T03:29:21.742Z,72.47949
2022-10-01T03:31:21.883Z,74.08691
2022-10-01T03:33:21.718Z,73.36719
2022-10-01T03:35:21.723Z,73.11035
2022-10-01T03:38:32.521Z,72.29102
2022-10-01T03:40:32.747Z,72.51172
2022-10-01T03:42:32.502Z,72.67969
2022-10-01T03:44:32.495Z,73.31738
2022-10-01T03:46:32.517Z,74.39648
2022-10-01T03:48:32.496Z,74.69043
2022-10-01T03:50:32.519Z,73.56836
2022-10-01T03:53:00.858Z,73.47363
2022-10-01T03:55:00.868Z,73.11426
2022-10-01T03:57:00.968Z,72.42871
2022-10-01T03:59:00.839Z,72.34375
2022-10-01T04:01:00.885Z,71.80078
2022-10-01T04:03:01.039Z,73.57813
2022-10-01T04:05:00.901Z,73.96387
2022-10-01T04:07:00.906Z,73.97852
2022-10-01T04:08:45.593Z,73.74121
2022-10-01T04:10:45.620Z,73.63574
2022-10-01T04:12:45.636Z,73.32031
2022-10-01T04:14:45.605Z,72.67676
2022-10-01T04:16:45.653Z,73.05957
2022-10-01T04:18:45.570Z,72.79785
2022-10-01T04:20:45.631Z,72.62988
2022-10-01T04:24:15.095Z,72.16797
2022-10-01T04:26:15.089Z,71.64844
2022-10-01T04:28:15.297Z,72.37695
2022-10-01T04:30:15.057Z,71.48047
2022-10-01T04:32:15.085Z,71.20508
2022-10-01T04:34:15.040Z,71.25293
2022-10-01T04:36:15.044Z,71.85059
2022-10-01T04:39:23.352Z,71.14258
2022-10-01T04:41:23.319Z,71.30566
2022-10-01T04:43:23.406Z,71.21582
2022-10-01T04:45:23.350Z,72.03418
2022-10-01T04:47:23.363Z,72.09277
2022-10-01T04:49:23.374Z,72.27441
2022-10-01T04:51:23.335Z,71.74219
2022-10-01T04:54:33.438Z,72.05176
2022-10-01T04:56:33.424Z,72.18164
2022-10-01T04:58:33.401Z,71.75879
2022-10-01T05:00:33.414Z,71.56641
2022-10-01T05:02:33.479Z,71.24414
2022-10-01T05:04:33.334Z,71.19824
2022-10-01T05:06:33.348Z,70.80273
2022-10-01T05:10:53.215Z,71.34863
2022-10-01T05:12:36.431Z,71.79004
2022-10-01T05:14:36.526Z,71.79688
2022-10-01T05:16:36.584Z,71.26172
2022-10-01T05:18:36.466Z,71.05762
2022-10-01T05:20:36.462Z,70.30176
2022-10-01T05:22:36.421Z,70.34375
2022-10-01T05:24:36.418Z,70.24707
2022-10-01T05:25:56.878Z,69.77246
2022-10-01T05:27:56.933Z,72.45313
2022-10-01T05:29:56.865Z,75.90527
2022-10-01T05:31:56.953Z,75.00586
2022-10-01T05:33:56.888Z,73.58301
2022-10-01T05:35:56.815Z,71.96191
2022-10-01T05:37:56.837Z,70.25098
2022-10-01T05:39:56.794Z,69.83008
2022-10-01T05:41:40.705Z,70.54492
2022-10-01T05:43:40.645Z,70.58105
2022-10-01T05:45:40.806Z,69.10645
2022-10-01T05:47:40.609Z,66.78613
2022-10-01T05:49:40.747Z,66.96875
2022-10-01T05:51:40.618Z,66.26074
2022-10-01T05:53:40.602Z,66.99121
2022-10-01T05:56:14.679Z,66.62988
2022-10-01T05:58:14.839Z,66.8125
2022-10-01T06:00:14.643Z,65.96094
2022-10-01T06:02:14.844Z,66.03125
2022-10-01T06:04:14.655Z,65.37695
2022-10-01T06:06:14.704Z,65.30957
2022-10-01T06:08:14.704Z,64.48047
2022-10-01T06:10:14.653Z,63.3623
2022-10-01T06:12:04.901Z,63.53516
2022-10-01T06:14:04.928Z,62.76074
2022-10-01T06:16:05.018Z,62.07324
2022-10-01T06:18:04.928Z,61.68848
2022-10-01T06:20:04.907Z,61.72461
2022-10-01T06:22:04.945Z,62.90723
2022-10-01T06:24:04.915Z,63.91602
2022-10-01T06:27:30.318Z,64.14258
2022-10-01T06:29:30.242Z,64.61816
2022-10-01T06:31:30.366Z,62.91113
2022-10-01T06:33:30.292Z,63.50586
2022-10-01T06:35:30.271Z,63.12891
2022-10-01T06:37:30.270Z,63.15527
2022-10-01T06:39:30.259Z,61.99902
2022-10-01T06:42:34.257Z,61.60156
2022-10-01T06:44:34.232Z,62.0918
2022-10-01T06:46:34.235Z,61.83496
2022-10-01T06:48:34.306Z,62.10742
2022-10-01T06:50:34.228Z,62.06543
2022-10-01T06:52:34.274Z,60.43359
2022-10-01T06:54:34.227Z,61.11816
2022-10-01T06:57:20.183Z,59.6875
2022-10-01T06:59:20.189Z,58.78418
2022-10-01T07:01:20.317Z,58.42871
2022-10-01T07:03:20.167Z,57.85938
2022-10-01T07:05:20.232Z,57.47559
2022-10-01T07:07:20.220Z,57.50488
2022-10-01T07:09:20.180Z,58.19043
2022-10-01T07:12:50.507Z,56.10254
2022-10-01T07:14:50.535Z,56.62891
2022-10-01T07:16:50.625Z,55.16602
2022-10-01T07:18:50.840Z,56.65625
2022-10-01T07:20:50.681Z,56.3457
2022-10-01T07:22:50.483Z,54.11621
2022-10-01T07:24:50.515Z,55.49512
2022-10-01T07:28:03.751Z,54.56152
2022-10-01T07:30:03.606Z,54.83105
2022-10-01T07:32:03.661Z,55.04004
2022-10-01T07:34:03.587Z,53.55859
2022-10-01T07:36:03.680Z,54.48242
2022-10-01T07:38:03.587Z,52.74121
2022-10-01T07:40:07.801Z,53.42969
2022-10-01T07:42:38.788Z,53.61914
2022-10-01T07:44:38.807Z,54.35254
2022-10-01T07:46:38.816Z,54.55566
2022-10-01T07:48:38.834Z,54.6543
2022-10-01T07:50:38.767Z,56.18848
2022-10-01T07:52:38.917Z,57.05273
2022-10-01T07:54:38.793Z,57.95508
2022-10-01T07:58:10.591Z,58.34375
2022-10-01T08:00:10.576Z,58.36816
2022-10-01T08:02:10.648Z,58.59375
2022-10-01T08:04:10.586Z,58.63867
2022-10-01T08:06:10.584Z,58.0127
2022-10-01T08:08:10.693Z,58.37207
2022-10-01T08:10:10.564Z,57.45215
2022-10-01T08:13:33.903Z,58.63965
2022-10-01T08:15:33.939Z,58.34668
2022-10-01T08:17:33.942Z,58.3584
2022-10-01T08:19:33.904Z,58.0625
2022-10-01T08:21:34.543Z,57.81348
2022-10-01T08:23:34.035Z,57.85059
2022-10-01T08:25:33.970Z,57.97559
2022-10-01T08:28:10.661Z,57.54785
2022-10-01T08:30:10.463Z,57.77344
2022-10-01T08:32:10.586Z,57.72754
2022-10-01T08:34:10.452Z,57.55273
2022-10-01T08:36:10.460Z,57.75391
2022-10-01T08:38:10.435Z,57.66504
2022-10-01T08:40:10.567Z,57.68848
2022-10-01T08:43:53.129Z,57.58789
2022-10-01T08:45:53.333Z,58.17188
2022-10-01T08:47:53.160Z,57.90137
2022-10-01T08:49:53.106Z,57.91016
2022-10-01T08:51:53.151Z,58.08301
2022-10-01T08:53:53.117Z,58.14551
2022-10-01T08:55:53.160Z,58.2666
2022-10-01T08:58:55.745Z,58.60645
2022-10-01T09:00:55.859Z,59.35742
2022-10-01T09:02:55.777Z,59.44336
2022-10-01T09:05:02.045Z,60.13672
2022-10-01T09:06:55.730Z,60.31055
2022-10-01T09:08:55.722Z,61.01953
2022-10-01T09:10:55.787Z,61.60254
2022-10-01T09:13:35.275Z,63.11426
2022-10-01T09:15:35.222Z,64.00586
2022-10-01T09:17:35.268Z,64.75
2022-10-01T09:19:35.209Z,65.53906
2022-10-01T09:21:36.008Z,67.09766
2022-10-01T09:23:35.246Z,67.66016
2022-10-01T09:25:35.244Z,68.54004
2022-10-01T09:29:03.499Z,69.08789
2022-10-01T09:31:03.486Z,68.75
2022-10-01T09:33:03.462Z,68.78906
2022-10-01T09:35:04.935Z,68.76855
2022-10-01T09:37:03.500Z,69.38379
2022-10-01T09:39:03.461Z,70.46191
2022-10-01T09:41:03.693Z,71.49609
2022-10-01T09:44:20.174Z,72.12988
2022-10-01T09:46:20.295Z,71.56934
2022-10-01T09:48:20.129Z,72.07129
2022-10-01T09:50:20.150Z,71.4043
2022-10-01T09:52:20.066Z,74.0166
2022-10-01T09:54:20.124Z,77.44238
2022-10-01T09:56:20.063Z,75.49121
2022-10-01T09:59:15.010Z,74.90625
2022-10-01T10:01:15.009Z,75.52344
2022-10-01T10:03:15.225Z,75.00293
2022-10-01T10:05:15.060Z,74.66992
2022-10-01T10:07:14.963Z,74.38379
2022-10-01T10:09:15.019Z,76.72363
2022-10-01T10:11:14.938Z,75.14258
2022-10-01T10:14:33.546Z,75.19043
2022-10-01T10:16:34.318Z,74.52344
2022-10-01T10:18:33.428Z,73.65723
2022-10-01T10:20:33.454Z,73.92773
2022-10-01T10:22:33.521Z,73.51367
2022-10-01T10:24:33.449Z,73.50586
2022-10-01T10:26:34.286Z,73.35645
2022-10-01T10:29:36.923Z,74.79883
2022-10-01T10:31:37.188Z,74.04395
2022-10-01T10:33:36.983Z,74.8418
2022-10-01T10:35:36.950Z,74.70703
2022-10-01T10:37:37.017Z,75.04297
2022-10-01T10:39:36.964Z,74.81348
2022-10-01T10:41:38.052Z,74.81348
2022-10-01T10:44:43.275Z,74.53516
2022-10-01T10:46:46.611Z,76.39063
2022-10-01T10:48:43.172Z,76.125
2022-10-01T10:50:43.321Z,75.30664
2022-10-01T10:52:45.971Z,74.90723
2022-10-01T10:54:43.246Z,74.55469
2022-10-01T10:56:43.232Z,73.76758
2022-10-01T10:59:39.769Z,74.29785
2022-10-01T11:01:39.918Z,74.15039
2022-10-01T11:03:39.824Z,73.88574
2022-10-01T11:05:39.689Z,74.40625
2022-10-01T11:07:39.704Z,74.21387
2022-10-01T11:09:39.667Z,74.60645
2022-10-01T11:11:39.707Z,74.21094
2022-10-01T11:13:39.760Z,74.20703
2022-10-01T11:15:09.975Z,74.5918
2022-10-01T11:17:10.051Z,73.83789
2022-10-01T11:19:10.102Z,73.69043
2022-10-01T11:21:09.971Z,73.49023
2022-10-01T11:23:09.973Z,73.54688
2022-10-01T11:25:09.999Z,72.67676
2022-10-01T11:27:09.960Z,73.00488
2022-10-01T11:30:30.457Z,73.02734
2022-10-01T11:32:30.365Z,72.9375
2022-10-01T11:34:30.416Z,73.18555
2022-10-01T11:36:30.428Z,72.91406
2022-10-01T11:38:30.462Z,71.75391
2022-10-01T11:40:30.412Z,71.06055
2022-10-01T11:42:30.431Z,70.83594
2022-10-01T11:45:38.338Z,73.1748
2022-10-01T11:47:38.381Z,73.3877
2022-10-01T11:49:38.358Z,75.12598
2022-10-01T11:51:38.334Z,74.49902
2022-10-01T11:53:38.376Z,76.36621
2022-10-01T11:55:38.534Z,76.02832
2022-10-01T11:57:38.315Z,74.43652
2022-10-01T12:00:42.369Z,75.75781
2022-10-01T12:02:42.352Z,75.56055
2022-10-01T12:04:42.506Z,77.03516
2022-10-01T12:06:42.455Z,76.17969
2022-10-01T12:08:42.366Z,77.27832
2022-10-01T12:10:42.325Z,79.64063
2022-10-01T12:12:42.303Z,78.88086
2022-10-01T12:15:56.296Z,77.90039
2022-10-01T12:17:56.158Z,77.52441
2022-10-01T12:19:56.272Z,76.56445
2022-10-01T12:21:56.180Z,76.48926
2022-10-01T12:23:56.160Z,73.5127
2022-10-01T12:25:56.137Z,73.75684
2022-10-01T12:27:56.239Z,74.75977
2022-10-01T12:31:12.575Z,71.63867
2022-10-01T12:33:12.556Z,72.9834
2022-10-01T12:35:12.450Z,71.74121
2022-10-01T12:37:12.411Z,71.28906
2022-10-01T12:39:12.390Z,67.80762
2022-10-01T12:41:12.593Z,69.0332
2022-10-01T12:43:12.360Z,67.91016
2022-10-01T12:46:46.411Z,69.31836
2022-10-01T12:48:46.196Z,69.36328
2022-10-01T12:50:46.335Z,69.5625
2022-10-01T12:52:46.224Z,69.39551
2022-10-01T12:54:46.213Z,68.61328
2022-10-01T12:56:48.259Z,70.14063
2022-10-01T12:58:46.271Z,69.81348
2022-10-01T13:01:19.232Z,66.70801
2022-10-01T13:03:19.117Z,70.31445
2022-10-01T13:05:19.191Z,68.70703
2022-10-01T13:07:19.157Z,69.31348
2022-10-01T13:09:19.277Z,69.77539
2022-10-01T13:11:19.244Z,69.15039
2022-10-01T13:13:19.489Z,68.08398
2022-10-01T13:16:35.819Z,68.89648
2022-10-01T13:18:35.149Z,68.70313
2022-10-01T13:20:35.290Z,66.39453
2022-10-01T13:22:35.229Z,68.30078
2022-10-01T13:24:35.344Z,66.43457
2022-10-01T13:26:35.984Z,65.69141
2022-10-01T13:28:35.276Z,65.42871
2022-10-01T13:32:07.894Z,63.94238
2022-10-01T13:34:07.702Z,65.68652
2022-10-01T13:36:07.689Z,64.64844
2022-10-01T13:38:07.805Z,64.62305
2022-10-01T13:40:08.054Z,63.78906
2022-10-01T13:42:10.238Z,62.17773
2022-10-01T13:44:07.885Z,62.04395
2022-10-01T13:46:51.377Z,61.19043
2022-10-01T13:48:51.421Z,61.80176
2022-10-01T13:50:51.348Z,61.96777
2022-10-01T13:52:51.354Z,61.50488
2022-10-01T13:54:51.256Z,59.92188
2022-10-01T13:56:51.033Z,58.65723
2022-10-01T13:58:51.139Z,59.59863
2022-10-01T14:01:43.363Z,59.95117
2022-10-01T14:03:43.199Z,61.8418
2022-10-01T14:05:43.241Z,60.32422
2022-10-01T14:07:43.358Z,61.09082
2022-10-01T14:09:43.150Z,62.62695
2022-10-01T14:11:43.031Z,63.43848
2022-10-01T14:13:42.995Z,62.89844
2022-10-01T14:15:43.152Z,62.75879
2022-10-01T14:17:41.381Z,63.35352
2022-10-01T14:19:41.329Z,63.11328
2022-10-01T14:21:41.435Z,61.70215
2022-10-01T14:23:41.477Z,62.29688
2022-10-01T14:25:41.363Z,62.5498
2022-10-01T14:27:41.420Z,61.44434
2022-10-01T14:29:41.418Z,61.41113
2022-10-01T14:32:25.173Z,61.86035
2022-10-01T14:34:25.277Z,60.45215
2022-10-01T14:36:25.295Z,61.44824
2022-10-01T14:38:25.246Z,62.66113
2022-10-01T14:40:25.185Z,63.25293
2022-10-01T14:42:25.183Z,62.78516
2022-10-01T14:44:25.315Z,62.08789
2022-10-01T14:47:10.517Z,62.84668
2022-10-01T14:49:10.411Z,61.74902
2022-10-01T14:51:10.427Z,62.875
2022-10-01T14:53:10.421Z,62.2168
2022-10-01T14:55:10.538Z,61.56152
2022-10-01T14:57:10.422Z,62.22363
2022-10-01T14:59:17.026Z,62.5498
2022-10-01T15:01:10.431Z,64.18848
2022-10-01T15:02:30.386Z,64.08887
2022-10-01T15:04:30.524Z,64.25
2022-10-01T15:06:30.655Z,63.41699
2022-10-01T15:08:30.373Z,65.16699
2022-10-01T15:10:30.378Z,64.92188
2022-10-01T15:12:30.433Z,64.99805
2022-10-01T15:14:30.429Z,65.375
2022-10-01T15:17:50.476Z,64.78027
2022-10-01T15:19:50.471Z,64.47852
2022-10-01T15:21:50.449Z,64.25488
2022-10-01T15:23:50.449Z,64.35352
2022-10-01T15:25:50.466Z,64.34766
2022-10-01T15:27:50.659Z,64.44922
2022-10-01T15:29:56.577Z,64.61621
2022-10-01T15:33:24.644Z,64.79102
2022-10-01T15:35:24.615Z,64.82324
2022-10-01T15:37:24.626Z,64.8457
2022-10-01T15:39:24.549Z,65.88965
2022-10-01T15:41:33.091Z,65.50293
2022-10-01T15:43:24.611Z,65.18359
2022-10-01T15:45:24.589Z,64.93848
2022-10-01T15:47:50.936Z,64.99707
2022-10-01T15:49:50.988Z,65.06836
2022-10-01T15:51:50.968Z,65.47168
2022-10-01T15:53:51.055Z,65.91602
2022-10-01T15:55:50.960Z,66.15918
2022-10-01T15:57:50.909Z,66.36719
2022-10-01T15:59:50.913Z,66.78809
2022-10-01T16:01:51.023Z,66.66211
2022-10-01T16:03:04.663Z,66.79395
2022-10-01T16:05:04.632Z,66.66797
2022-10-01T16:07:04.616Z,66.64941
2022-10-01T16:09:04.736Z,67.26367
2022-10-01T16:11:04.573Z,66.99512
2022-10-01T16:13:04.980Z,67.31543
2022-10-01T16:15:04.626Z,67.80469
2022-10-01T16:17:04.622Z,67.63477
2022-10-01T16:18:13.235Z,67.49609
2022-10-01T16:20:13.285Z,67.68359
2022-10-01T16:22:13.196Z,67.65527
2022-10-01T16:24:13.218Z,68.18457
2022-10-01T16:26:13.323Z,68.69238
2022-10-01T16:28:13.301Z,69.08203
2022-10-01T16:30:13.366Z,69.33594
2022-10-01T16:32:13.208Z,68.74121
2022-10-01T16:33:52.637Z,69.42676
2022-10-01T16:35:52.670Z,69.2207
2022-10-01T16:37:52.851Z,68.54199
2022-10-01T16:39:52.773Z,69.00293
2022-10-01T16:42:22.646Z,68.74707
2022-10-01T16:43:52.607Z,68.25977
2022-10-01T16:45:52.682Z,68.9541
2022-10-01T16:48:42.670Z,67.61035
2022-10-01T16:50:42.731Z,68.61914
2022-10-01T16:52:42.744Z,68.64063
2022-10-01T16:54:42.801Z,68.57617
2022-10-01T16:56:42.680Z,69.84766
2022-10-01T16:58:42.703Z,70.03027
2022-10-01T17:00:42.758Z,70.0166
2022-10-01T17:04:33.576Z,70.91895
2022-10-01T17:06:26.598Z,70.81836
2022-10-01T17:08:26.676Z,70.81445
2022-10-01T17:10:26.611Z,70.40918
2022-10-01T17:12:26.583Z,70.76563
2022-10-01T17:14:26.584Z,70.3623
2022-10-01T17:16:26.748Z,70.07422
2022-10-01T17:18:54.543Z,70.75684
2022-10-01T17:20:54.562Z,70.875
2022-10-01T17:22:54.623Z,70.8916
2022-10-01T17:24:54.669Z,71.36035
2022-10-01T17:26:54.619Z,71.30469
2022-10-01T17:28:54.569Z,71.07422
2022-10-01T17:30:54.575Z,71.25391
2022-10-01T17:32:54.561Z,70.61523
2022-10-01T17:34:22.433Z,70.56641
2022-10-01T17:36:22.429Z,70.77441
2022-10-01T17:38:22.511Z,70.37598
2022-10-01T17:40:22.528Z,70.12012
2022-10-01T17:42:22.420Z,70.50488
2022-10-01T17:44:22.517Z,69.65332
2022-10-01T17:46:22.586Z,69.37598
2022-10-01T17:49:56.398Z,69.05762
2022-10-01T17:51:56.347Z,69.17969
2022-10-01T17:53:56.358Z,68.97168
2022-10-01T17:55:56.369Z,68.8916
2022-10-01T17:57:56.442Z,68.98828
2022-10-01T17:59:56.394Z,69.71973
2022-10-01T18:01:56.454Z,69.2041
2022-10-01T18:04:16.800Z,69.55762
2022-10-01T18:06:16.818Z,69.00781
2022-10-01T18:08:16.829Z,68.42773
2022-10-01T18:10:16.774Z,68.53418
2022-10-01T18:12:16.895Z,68.4043
2022-10-01T18:14:16.762Z,69.53516
2022-10-01T18:16:19.798Z,68.96777
2022-10-01T18:19:46.061Z,69.70703
2022-10-01T18:20:28.943Z,69.31348
2022-10-01T18:22:29.013Z,68.80566
2022-10-01T18:24:28.919Z,68.48242
2022-10-01T18:26:28.970Z,69.51367
2022-10-01T18:28:29.080Z,69.3418
2022-10-01T18:30:28.945Z,68.60156
2022-10-01T18:32:28.995Z,68.50391
2022-10-01T18:35:34.341Z,68.36621
2022-10-01T18:37:40.255Z,68.30273
2022-10-01T18:39:34.338Z,68.08496
2022-10-01T18:41:34.298Z,67.97754
2022-10-01T18:43:34.459Z,67.68262
2022-10-01T18:45:34.396Z,67.94141
2022-10-01T18:47:34.246Z,68.44922
2022-10-01T18:50:14.803Z,68.13086
2022-10-01T18:52:14.789Z,67.46582
2022-10-01T18:54:14.833Z,67.37402
2022-10-01T18:56:14.780Z,67.39258
2022-10-01T18:58:14.751Z,67.7041
2022-10-01T19:00:14.896Z,67.07227
2022-10-01T19:02:15.075Z,67.02539
2022-10-01T19:05:36.266Z,66.54785
2022-10-01T19:07:35.363Z,66.2334
2022-10-01T19:09:35.335Z,66.25684
2022-10-01T19:11:35.308Z,66.02344
2022-10-01T19:13:35.329Z,66.36621
2022-10-01T19:15:35.364Z,65.35742
2022-10-01T19:17:35.409Z,65.10645
2022-10-01T19:20:46.435Z,65.87109
2022-10-01T19:22:42.782Z,66.2041
2022-10-01T19:24:42.859Z,65.7793
2022-10-01T19:26:42.983Z,65.57129
2022-10-01T19:28:42.783Z,65.89941
2022-10-01T19:30:42.824Z,66.57129
2022-10-01T19:32:42.800Z,67.02246
2022-10-01T19:35:51.774Z,68.78223
2022-10-01T19:37:51.552Z,69.87207
2022-10-01T19:39:51.568Z,70.14258
2022-10-01T19:41:51.584Z,70.63574
2022-10-01T19:43:51.549Z,70.23145
2022-10-01T19:45:51.621Z,69.95703
2022-10-01T19:47:51.621Z,69.60742
2022-10-01T19:51:19.368Z,69.13672
2022-10-01T19:53:19.407Z,69.24902
2022-10-01T19:55:19.393Z,68.94434
2022-10-01T19:57:19.346Z,68.98438
2022-10-01T19:59:19.427Z,69.25098
2022-10-01T20:01:19.512Z,69.39258
2022-10-01T20:03:19.371Z,68.81836
2022-10-01T20:06:16.712Z,69.15234
2022-10-01T20:08:16.697Z,69.16309
2022-10-01T20:10:16.771Z,69.19629
2022-10-01T20:12:16.729Z,68.69629
2022-10-01T20:14:16.759Z,68.76465
2022-10-01T20:16:16.805Z,68.67676
2022-10-01T20:18:16.739Z,68.57617
2022-10-01T20:21:46.491Z,68.74219
2022-10-01T20:23:46.433Z,68.73926
2022-10-01T20:25:46.509Z,68.95996
2022-10-01T20:27:49.705Z,69.4248
2022-10-01T20:29:46.452Z,69.22266
2022-10-01T20:31:46.639Z,69.60059
2022-10-01T20:33:46.539Z,69.44824
2022-10-01T20:36:37.183Z,70.07129
2022-10-01T20:38:36.409Z,69.8877
2022-10-01T20:40:36.456Z,70.2998
2022-10-01T20:42:36.470Z,69.97168
2022-10-01T20:44:36.418Z,70.09863
2022-10-01T20:46:36.937Z,70.06641
2022-10-01T20:48:36.520Z,70.43945
2022-10-01T20:51:58.741Z,70.15625
2022-10-01T20:53:58.716Z,70.21582
2022-10-01T20:55:58.677Z,70.4043
2022-10-01T20:57:58.697Z,70.8457
2022-10-01T20:59:58.682Z,70.18652
2022-10-01T21:01:58.876Z,70.77148
2022-10-01T21:03:58.690Z,70.60449
2022-10-01T21:06:47.794Z,71.02246
2022-10-01T21:08:47.879Z,72.22949
2022-10-01T21:10:47.981Z,75.16504
2022-10-01T21:12:47.761Z,75.15137
2022-10-01T21:14:47.797Z,76.31934
2022-10-01T21:16:47.958Z,76.27051
2022-10-01T21:18:47.787Z,77.85352
2022-10-01T21:22:15.475Z,75.93457
2022-10-01T21:24:15.487Z,76.06445
2022-10-01T21:26:15.388Z,76.15332
2022-10-01T21:28:15.497Z,75.85449
2022-10-01T21:30:15.478Z,76.48633
2022-10-01T21:32:15.393Z,76.65625
2022-10-01T21:34:15.472Z,78.53613
2022-10-01T21:37:15.960Z,78.7334
2022-10-01T21:39:16.059Z,80.14941
2022-10-01T21:41:16.088Z,80.2373
2022-10-01T21:43:16.100Z,79.49609
2022-10-01T21:45:16.006Z,79.79785
2022-10-01T21:47:15.954Z,79.14453
2022-10-01T21:49:15.948Z,78.70313
2022-10-01T21:52:39.345Z,79.89355
2022-10-01T21:54:39.351Z,79.47266
2022-10-01T21:56:39.631Z,79.60156
2022-10-01T21:58:39.366Z,78.91699
2022-10-01T22:00:39.461Z,77.98438
2022-10-01T22:02:39.360Z,77.57227
2022-10-01T22:04:39.409Z,77.34375
2022-10-01T22:08:04.419Z,77.23633
2022-10-01T22:10:04.475Z,77.12695
2022-10-01T22:12:04.631Z,77.28223
2022-10-01T22:14:04.458Z,76.6582
2022-10-01T22:16:04.498Z,76.62305
2022-10-01T22:18:04.853Z,76.16406
2022-10-01T22:20:04.436Z,76.2168
2022-10-01T22:22:33.010Z,76.59863
2022-10-01T22:24:33.063Z,76.48047
2022-10-01T22:26:33.609Z,76.54102
2022-10-01T22:28:33.125Z,77.0293
2022-10-01T22:30:33.049Z,76.8457
2022-10-01T22:32:33.030Z,76.73926
2022-10-01T22:34:33.047Z,76.60352
2022-10-01T22:38:00.368Z,75.45313
2022-10-01T22:40:00.456Z,75.76953
2022-10-01T22:42:00.506Z,75.5918
2022-10-01T22:44:00.424Z,75.58789
2022-10-01T22:46:00.519Z,75.33105
2022-10-01T22:48:00.380Z,74.99023
2022-10-01T22:50:00.372Z,74.78809
2022-10-01T22:53:34.574Z,74.5498
2022-10-01T22:55:34.551Z,74.49414
2022-10-01T22:57:34.559Z,74.59473
2022-10-01T22:59:34.538Z,74.46484
2022-10-01T23:01:34.586Z,74.66602
2022-10-01T23:03:34.503Z,74.49316
2022-10-01T23:05:34.472Z,74.8916
2022-10-01T23:08:44.164Z,74.60254
2022-10-01T23:10:44.167Z,74.4541
2022-10-01T23:12:44.243Z,74.69238
2022-10-01T23:14:44.223Z,74.64063
2022-10-01T23:16:44.297Z,74.32031
2022-10-01T23:18:44.189Z,74.61426
2022-10-01T23:20:44.176Z,74.95996
2022-10-01T23:23:37.559Z,75.25781
2022-10-01T23:25:37.526Z,74.61816
2022-10-01T23:27:37.518Z,74.29004
2022-10-01T23:29:37.567Z,74.44043
2022-10-01T23:31:37.714Z,74.37988
2022-10-01T23:33:37.568Z,74.30371
2022-10-01T23:35:37.496Z,74.37207
2022-10-01T23:38:38.178Z,73.99805
2022-10-01T23:40:38.149Z,73.6748
2022-10-01T23:42:38.122Z,73.93359
2022-10-01T23:44:38.162Z,73.92676
2022-10-01T23:46:38.676Z,73.87012
2022-10-01T23:48:38.175Z,74.13281
2022-10-01T23:50:38.110Z,74.2207
2022-10-01T23:53:40.760Z,74.38477
2022-10-01T23:55:40.700Z,74.69629
2022-10-01T23:57:40.703Z,74.78613
2022-10-01T23:59:40.732Z,75.11328
